PST,Max TemperatureF,Mean TemperatureF,Min TemperatureF,Max Dew PointF,MeanDew PointF,Min DewpointF,Max Humidity, Mean Humidity, Min Humidity, Max Sea Level PressureIn, Mean Sea Level PressureIn, Min Sea Level PressureIn, Max VisibilityMiles, Mean VisibilityMiles, Min VisibilityMiles, Max Wind SpeedMPH, Mean Wind SpeedMPH, Max Gust SpeedMPH,PrecipitationIn, CloudCover, Events, WindDirDegrees
2013-2-1,45,33,21,32,27,20,92,77,62,30.49,30.39,30.24,10,9,5,12,6,13,0.00,0,,20
2013-2-2,41,32,23,31,26,21,96,81,65,30.51,30.43,30.29,10,10,10,14,8,16,0.00,0,,6
2013-2-3,34,29,23,32,28,22,96,89,82,30.29,30.21,30.13,10,9,5,10,2,13,0.00,6,,14
2013-2-4,35,33,30,32,30,28,100,91,82,30.17,30.10,29.97,10,5,0,12,3,24,0.00,8,Fog,27
2013-2-5,40,34,28,36,32,28,100,90,79,29.97,29.88,29.82,10,5,0,25,4,29,0.00,5,Fog,347
2013-2-6,49,37,25,41,29,22,100,79,58,30.05,29.99,29.92,10,5,0,18,6,23,T,3,Fog-Rain,14
2013-2-7,48,40,32,32,29,26,89,67,45,30.07,29.96,29.88,10,10,10,14,7,16,0.00,2,,339
2013-2-8,46,36,26,24,23,20,92,65,37,30.18,30.14,30.08,10,10,10,18,7,22,0.00,0,,352
2013-2-9,43,33,23,29,25,20,92,75,57,30.22,30.15,30.11,10,10,10,25,4,26,0.00,0,,2
2013-2-10,46,34,22,28,25,21,88,67,45,30.30,30.26,30.22,10,10,9,8,4,9,0.00,0,,42
2013-2-11,38,31,23,29,26,21,96,83,70,30.27,30.24,30.21,10,10,8,15,8,18,0.00,1,,343
2013-2-12,46,37,28,34,30,26,92,79,65,30.33,30.27,30.17,10,8,5,28,4,30,0.00,3,,7
2013-2-13,52,42,32,33,28,25,85,61,36,30.38,30.25,30.14,10,10,10,18,8,21,0.00,0,,296
2013-2-14,49,39,28,31,28,24,85,68,50,30.55,30.48,30.39,10,10,10,10,5,12,0.00,2,,30
2013-2-15,50,38,26,34,29,23,85,71,56,30.57,30.45,30.26,10,10,10,10,6,13,0.00,0,,6
2013-2-16,52,40,27,35,29,23,92,64,36,30.26,30.08,29.97,10,10,10,24,8,31,0.00,1,,281
2013-2-17,51,41,30,27,24,20,78,53,28,30.12,30.08,30.03,10,10,10,28,5,32,0.00,2,,275
2013-2-18,43,35,26,30,27,23,85,71,57,30.09,29.93,29.80,10,10,10,13,9,17,0.00,5,,341
2013-2-19,44,36,27,30,27,23,92,75,57,29.94,29.81,29.75,10,10,10,16,8,20,T,5,,344
2013-2-20,46,36,25,28,22,17,78,59,40,30.01,29.98,29.95,10,10,10,14,6,16,0.00,0,,302
2013-2-21,50,37,23,30,26,19,88,67,46,30.04,30.00,29.95,10,10,10,18,8,30,0.00,1,,314
2013-2-22,49,40,31,35,29,19,92,68,44,29.97,29.80,29.64,10,10,8,26,12,32,0.00,5,,194
2013-2-23,53,39,25,26,21,18,75,52,28,30.24,30.02,29.78,10,10,10,30,10,36,0.00,0,,261
2013-2-24,45,35,25,29,25,20,85,67,48,30.31,30.23,30.04,10,10,10,16,5,20,0.00,2,,157
2013-2-25,49,40,30,32,27,20,100,66,31,30.14,29.97,29.87,10,10,4,29,12,36,T,3,Rain-Snow,283
2013-2-26,49,38,26,27,23,19,81,59,37,30.32,30.25,30.15,10,10,10,23,7,30,0.00,1,,110
2013-2-27,49,37,24,30,27,22,88,65,42,30.30,30.25,30.20,10,10,10,14,4,16,0.00,2,,8
2013-2-28,45,41,37,42,38,30,96,83,70,30.33,30.29,30.25,10,9,4,10,3,13,0.16,8,Rain,4